Time;durP1;ratioP1;P1;durP2;ratioP2;P2;SDS_P1;SDS_P2;PMS_P1;PMS_P2;Temp;Humidity;BMP_temperature;BMP_pressure;BME280_temperature;BME280_humidity;BME280_pressure;Samples;Min_cycle;Max_cycle;Signal;HPM_P1;HPM_P2
2021/10/05 00:01:20;;;;;;;5.07;4.57;;;10.00;99.90;;;;;;5073847;28;20112;-68
2021/10/05 00:03:46;;;;;;;6.80;5.65;;;9.90;99.90;;;;;;5073995;28;20040;-68
2021/10/05 00:06:11;;;;;;;9.02;5.03;;;9.80;99.90;;;;;;5073273;28;20119;-68
2021/10/05 00:08:37;;;;;;;6.63;4.75;;;9.80;99.90;;;;;;5073963;28;20107;-68
2021/10/05 00:11:02;;;;;;;6.65;4.72;;;9.80;99.90;;;;;;5073690;28;20024;-69
2021/10/05 00:13:28;;;;;;;7.68;4.60;;;9.70;99.90;;;;;;5073930;28;20444;-68
2021/10/05 00:15:53;;;;;;;7.45;5.55;;;9.70;99.90;;;;;;5072093;28;20024;-68
2021/10/05 00:18:19;;;;;;;7.63;4.97;;;9.70;99.90;;;;;;5073350;28;20035;-68
2021/10/05 00:20:44;;;;;;;7.68;4.80;;;9.70;99.90;;;;;;5073874;28;20489;-69
2021/10/05 00:23:10;;;;;;;5.80;4.70;;;9.70;99.90;;;;;;5073868;28;20029;-67
2021/10/05 00:25:37;;;;;;;6.13;5.05;;;9.60;99.90;;;;;;5089618;28;20032;-68
2021/10/05 00:28:02;;;;;;;6.97;5.20;;;9.60;99.90;;;;;;5073805;28;20420;-68
2021/10/05 00:30:28;;;;;;;6.20;4.68;;;9.50;99.90;;;;;;5073767;28;20017;-67
2021/10/05 00:32:53;;;;;;;7.05;5.13;;;9.50;99.90;;;;;;5073185;28;20029;-68
2021/10/05 00:35:19;;;;;;;7.75;5.90;;;9.60;99.90;;;;;;5073195;28;20036;-68
2021/10/05 00:37:45;;;;;;;6.47;5.78;;;9.60;99.90;;;;;;5073712;28;20033;-67
2021/10/05 00:40:11;;;;;;;7.88;5.60;;;9.60;99.90;;;;;;5073698;28;20082;-67
2021/10/05 00:42:36;;;;;;;7.07;5.25;;;9.60;99.90;;;;;;5073668;28;20033;-67
2021/10/05 00:45:03;;;;;;;7.03;5.32;;;9.60;99.90;;;;;;5073575;28;20028;-68
2021/10/05 00:47:28;;;;;;;6.45;5.63;;;9.50;99.90;;;;;;5073606;28;20024;-68
2021/10/05 00:49:54;;;;;;;7.30;5.80;;;9.40;99.90;;;;;;5073603;28;20025;-69
2021/10/05 00:52:19;;;;;;;6.45;5.55;;;9.50;99.90;;;;;;5073552;28;20074;-68
2021/10/05 00:54:47;;;;;;;7.03;5.90;;;9.50;99.90;;;;;;5073244;28;20107;-69
2021/10/05 00:57:13;;;;;;;6.55;5.03;;;9.50;99.90;;;;;;5073514;28;20099;-69
2021/10/05 00:59:40;;;;;;;7.55;5.28;;;9.50;99.90;;;;;;5073199;28;20101;-68
2021/10/05 01:02:09;;;;;;;6.88;5.55;;;9.40;99.90;;;;;;5073468;28;20027;-69
2021/10/05 01:04:34;;;;;;;10.02;5.55;;;9.30;99.90;;;;;;5073212;28;20451;-69
2021/10/05 01:07:04;;;;;;;5.32;4.82;;;9.20;99.90;;;;;;5072792;28;20115;-68
2021/10/05 01:09:31;;;;;;;6.65;5.65;;;9.20;99.90;;;;;;5073105;28;20031;-69
2021/10/05 01:11:56;;;;;;;10.25;6.15;;;9.20;99.90;;;;;;5072836;28;20038;-69
2021/10/05 01:14:23;;;;;;;7.65;5.40;;;9.20;99.90;;;;;;5076088;28;20145;-67
2021/10/05 01:16:50;;;;;;;10.27;6.53;;;9.20;99.90;;;;;;5076642;28;20043;-68
2021/10/05 01:19:16;;;;;;;7.35;6.55;;;9.30;99.90;;;;;;5091960;28;20028;-69
2021/10/05 01:21:41;;;;;;;7.18;6.47;;;9.30;99.90;;;;;;5076590;28;20153;-69
2021/10/05 01:24:09;;;;;;;10.55;7.05;;;9.30;99.90;;;;;;5076778;28;20382;-68
2021/10/05 01:26:35;;;;;;;8.07;6.18;;;9.30;99.90;;;;;;5091759;28;20036;-68
2021/10/05 01:29:04;;;;;;;8.70;6.95;;;9.30;99.90;;;;;;5076412;28;20027;-68
2021/10/05 01:31:32;;;;;;;10.10;6.85;;;9.30;99.90;;;;;;5075252;28;20024;-68
2021/10/05 01:33:59;;;;;;;10.55;7.03;;;9.30;99.90;;;;;;5076598;28;20024;-68
2021/10/05 01:36:25;;;;;;;12.73;8.35;;;9.30;99.90;;;;;;5075128;28;20055;-68
2021/10/05 01:38:50;;;;;;;9.82;8.07;;;9.40;99.90;;;;;;5076234;28;20086;-68
2021/10/05 01:41:16;;;;;;;9.98;7.45;;;9.50;99.90;;;;;;5076463;28;20020;-68
2021/10/05 01:43:41;;;;;;;11.25;7.97;;;9.50;99.90;;;;;;5076453;28;20060;-69
2021/10/05 01:46:12;;;;;;;9.93;6.97;;;9.50;99.90;;;;;;5075738;28;20104;-68
2021/10/05 01:48:38;;;;;;;7.90;6.80;;;9.50;99.90;;;;;;5076366;28;20019;-69
2021/10/05 01:51:04;;;;;;;10.18;7.80;;;9.40;99.90;;;;;;5075774;28;20163;-69
2021/10/05 01:53:29;;;;;;;9.68;7.88;;;9.40;99.90;;;;;;5076239;28;20100;-69
2021/10/05 01:55:55;;;;;;;13.07;7.85;;;9.40;99.90;;;;;;5076232;28;20063;-69
2021/10/05 01:58:20;;;;;;;14.05;8.75;;;9.40;99.90;;;;;;5074750;28;20025;-69
2021/10/05 02:00:46;;;;;;;13.77;9.38;;;9.50;99.90;;;;;;5076123;28;20029;-69
2021/10/05 02:03:13;;;;;;;13.55;8.95;;;9.50;99.90;;;;;;5075551;28;20029;-69
2021/10/05 02:05:41;;;;;;;15.77;9.10;;;9.50;99.90;;;;;;5075613;28;20382;-69
2021/10/05 02:08:07;;;;;;;14.23;8.80;;;9.50;99.90;;;;;;5075978;28;20416;-69
2021/10/05 02:10:33;;;;;;;12.38;9.07;;;9.50;99.90;;;;;;5075645;28;20362;-68
2021/10/05 02:12:58;;;;;;;13.93;9.48;;;9.60;99.90;;;;;;5075596;28;20031;-68
2021/10/05 02:15:24;;;;;;;16.13;9.50;;;9.50;99.90;;;;;;5074404;28;20031;-68
2021/10/05 02:17:49;;;;;;;13.95;9.93;;;9.50;99.90;;;;;;5075794;28;20433;-68
2021/10/05 02:20:15;;;;;;;16.10;9.55;;;9.50;99.90;;;;;;5075722;28;20374;-68
2021/10/05 02:22:40;;;;;;;14.65;10.18;;;9.50;99.90;;;;;;5075702;28;20116;-68
2021/10/05 02:25:07;;;;;;;12.85;9.38;;;9.50;99.90;;;;;;5075285;28;20099;-68
2021/10/05 02:27:32;;;;;;;16.13;10.10;;;9.50;99.90;;;;;;5075055;28;20056;-68
2021/10/05 02:29:58;;;;;;;14.50;9.40;;;9.50;99.90;;;;;;5074147;28;20048;-68
2021/10/05 02:32:24;;;;;;;12.68;9.43;;;9.50;99.90;;;;;;5075472;28;20086;-68
2021/10/05 02:34:49;;;;;;;14.13;9.35;;;9.50;99.90;;;;;;5075157;28;20023;-69
2021/10/05 02:37:15;;;;;;;14.00;9.65;;;9.50;99.90;;;;;;5075133;28;20032;-69
2021/10/05 02:39:41;;;;;;;13.02;10.02;;;9.50;99.90;;;;;;5075336;28;20099;-68
2021/10/05 02:42:07;;;;;;;16.35;10.25;;;9.50;99.90;;;;;;5075212;28;20059;-69
2021/10/05 02:44:33;;;;;;;14.57;10.30;;;9.50;99.90;;;;;;5056772;28;20024;-69
2021/10/05 02:46:59;;;;;;;12.85;9.63;;;9.50;99.90;;;;;;5075051;28;20035;-69
2021/10/05 02:49:24;;;;;;;16.58;10.20;;;9.50;99.90;;;;;;5074857;28;20020;-70
2021/10/05 02:51:50;;;;;;;17.02;10.85;;;9.50;99.90;;;;;;5074751;28;20025;-70
2021/10/05 02:54:15;;;;;;;16.33;10.30;;;9.50;99.90;;;;;;5074733;28;20031;-69
2021/10/05 02:56:41;;;;;;;14.75;9.88;;;9.50;99.90;;;;;;5074420;28;20029;-69
2021/10/05 02:59:06;;;;;;;16.35;9.55;;;9.50;99.90;;;;;;5074655;28;20024;-68
2021/10/05 03:01:32;;;;;;;14.68;10.85;;;9.50;99.90;;;;;;5073500;28;20033;-68
2021/10/05 03:03:58;;;;;;;16.23;10.35;;;9.50;99.90;;;;;;5073422;28;20150;-68
2021/10/05 03:06:23;;;;;;;15.23;10.45;;;9.50;99.90;;;;;;5074094;28;20045;-69
2021/10/05 03:08:52;;;;;;;19.17;10.77;;;9.50;99.90;;;;;;5074754;28;20032;-68
2021/10/05 03:11:18;;;;;;;18.08;9.63;;;9.50;99.90;;;;;;5074188;28;20070;-68
2021/10/05 03:13:44;;;;;;;12.90;9.57;;;9.50;99.90;;;;;;5074699;28;20032;-68
2021/10/05 03:16:09;;;;;;;14.18;10.50;;;9.50;99.90;;;;;;5074327;28;20475;-68
2021/10/05 03:18:35;;;;;;;14.18;9.82;;;9.50;99.90;;;;;;5073446;28;20029;-69
2021/10/05 03:21:01;;;;;;;11.57;9.57;;;9.50;99.90;;;;;;5074297;28;20052;-69
2021/10/05 03:23:27;;;;;;;13.23;10.93;;;9.50;99.90;;;;;;5073938;28;20082;-69
2021/10/05 03:25:52;;;;;;;15.35;11.38;;;9.50;99.90;;;;;;5074390;28;20029;-69
2021/10/05 03:28:18;;;;;;;16.73;11.88;;;9.60;99.90;;;;;;5074445;28;20025;-69
2021/10/05 03:30:44;;;;;;;18.98;12.48;;;9.60;99.90;;;;;;5074170;28;20370;-68
2021/10/05 03:33:10;;;;;;;18.25;12.48;;;9.60;99.90;;;;;;5074083;28;20024;-69
2021/10/05 03:35:35;;;;;;;17.20;12.88;;;9.60;99.90;;;;;;5073888;28;20033;-69
2021/10/05 03:38:01;;;;;;;18.92;13.05;;;9.60;99.90;;;;;;5074289;28;20107;-68
2021/10/05 03:40:27;;;;;;;17.95;13.10;;;9.60;99.90;;;;;;5074027;28;20032;-69
2021/10/05 03:42:53;;;;;;;16.38;11.93;;;9.70;99.90;;;;;;5074275;28;20024;-69
2021/10/05 03:45:18;;;;;;;16.27;12.23;;;9.70;99.90;;;;;;5073807;28;20037;-69
2021/10/05 03:47:44;;;;;;;18.23;12.65;;;9.70;99.90;;;;;;5074178;28;20024;-69
2021/10/05 03:50:10;;;;;;;19.85;12.50;;;9.70;99.90;;;;;;5073181;28;20028;-69
2021/10/05 03:52:37;;;;;;;20.08;13.20;;;9.70;99.90;;;;;;5074117;28;20469;-69
2021/10/05 03:55:04;;;;;;;16.90;12.75;;;9.70;99.90;;;;;;5073892;28;20524;-69
2021/10/05 03:57:30;;;;;;;16.13;12.68;;;9.70;99.90;;;;;;5073552;28;20103;-68
2021/10/05 03:59:55;;;;;;;16.48;12.68;;;9.70;99.90;;;;;;5073788;28;20052;-69
2021/10/05 04:02:21;;;;;;;16.27;11.48;;;9.70;99.90;;;;;;5073994;28;20029;-69
2021/10/05 04:04:47;;;;;;;20.23;13.32;;;9.60;99.90;;;;;;5073307;28;20044;-68
2021/10/05 04:07:12;;;;;;;14.38;11.30;;;9.70;99.90;;;;;;5073366;28;20024;-68
2021/10/05 04:09:38;;;;;;;17.70;11.95;;;9.60;99.90;;;;;;5073958;28;20027;-68
2021/10/05 04:12:03;;;;;;;17.58;11.90;;;9.70;99.90;;;;;;5073998;28;20599;-68
2021/10/05 04:14:29;;;;;;;19.75;11.40;;;9.70;99.90;;;;;;5073933;28;20059;-68
2021/10/05 04:16:55;;;;;;;17.58;12.93;;;9.70;99.90;;;;;;5073321;28;20086;-68
2021/10/05 04:19:20;;;;;;;20.15;13.57;;;9.70;99.90;;;;;;5073899;28;20028;-69
2021/10/05 04:21:46;;;;;;;18.92;12.77;;;9.70;99.90;;;;;;5073862;28;20051;-69
2021/10/05 04:24:11;;;;;;;16.48;13.98;;;9.60;99.90;;;;;;5072448;28;20047;-69
2021/10/05 04:26:37;;;;;;;16.75;13.05;;;9.70;99.90;;;;;;5073430;28;20389;-69
2021/10/05 04:29:02;;;;;;;21.10;14.70;;;9.60;99.90;;;;;;5073789;28;20021;-68
2021/10/05 04:31:28;;;;;;;19.63;13.50;;;9.60;99.90;;;;;;5073751;28;20129;-69
2021/10/05 04:33:53;;;;;;;21.80;14.73;;;9.60;99.90;;;;;;5073749;28;20036;-69
2021/10/05 04:36:19;;;;;;;16.52;12.63;;;9.60;99.90;;;;;;5073712;28;20031;-69
2021/10/05 04:38:44;;;;;;;19.25;13.93;;;9.50;99.90;;;;;;5073145;28;20060;-69
2021/10/05 04:41:10;;;;;;;20.10;13.73;;;9.50;99.90;;;;;;5073105;28;20070;-68
2021/10/05 04:43:36;;;;;;;19.17;13.68;;;9.50;99.90;;;;;;5073573;28;20033;-68
2021/10/05 04:46:01;;;;;;;18.02;13.23;;;9.40;99.90;;;;;;5073290;28;20024;-69
2021/10/05 04:48:27;;;;;;;15.55;12.02;;;9.40;99.90;;;;;;5075321;28;20098;-68
2021/10/05 04:50:52;;;;;;;19.73;13.27;;;9.30;99.90;;;;;;5077448;28;20482;-68
2021/10/05 04:53:18;;;;;;;18.95;13.52;;;9.20;99.90;;;;;;5077394;28;20025;-68
2021/10/05 04:55:44;;;;;;;20.55;13.88;;;9.30;99.90;;;;;;5077348;28;20061;-68
2021/10/05 04:58:11;;;;;;;19.10;14.85;;;9.20;99.90;;;;;;5077328;28;20021;-68
2021/10/05 05:00:36;;;;;;;19.80;15.35;;;9.20;99.90;;;;;;5077250;28;20028;-68
2021/10/05 05:03:02;;;;;;;20.40;14.15;;;9.20;99.90;;;;;;5076904;28;20025;-68
2021/10/05 05:05:27;;;;;;;17.48;13.82;;;9.20;99.90;;;;;;5076606;28;20044;-68
2021/10/05 05:07:58;;;;;;;20.80;14.10;;;9.10;99.90;;;;;;5075675;28;20038;-68
2021/10/05 05:10:24;;;;;;;17.05;13.48;;;9.10;99.90;;;;;;5075656;28;20505;-68
2021/10/05 05:12:49;;;;;;;22.10;13.82;;;9.10;99.90;;;;;;5075213;28;20025;-68
2021/10/05 05:15:16;;;;;;;26.73;14.82;;;9.00;99.90;;;;;;5076957;28;20146;-68
2021/10/05 05:17:41;;;;;;;20.42;14.80;;;9.00;99.90;;;;;;5076666;28;20025;-68
2021/10/05 05:20:07;;;;;;;21.13;14.57;;;9.00;99.90;;;;;;5076883;28;20355;-68
2021/10/05 05:22:33;;;;;;;18.17;13.73;;;9.00;99.90;;;;;;5076870;28;20495;-68
2021/10/05 05:24:58;;;;;;;20.02;13.90;;;8.90;99.90;;;;;;5076720;28;20021;-67
2021/10/05 05:27:24;;;;;;;20.60;14.82;;;9.00;99.90;;;;;;5076477;28;20043;-68
2021/10/05 05:29:51;;;;;;;20.00;14.20;;;8.90;99.90;;;;;;5076412;28;20500;-68
2021/10/05 05:32:17;;;;;;;21.45;14.13;;;8.90;99.90;;;;;;5075132;28;20031;-68
2021/10/05 05:34:43;;;;;;;16.45;13.13;;;8.90;99.90;;;;;;5076352;28;20527;-68
2021/10/05 05:37:09;;;;;;;19.17;13.95;;;8.90;99.90;;;;;;5076546;28;20119;-68
2021/10/05 05:39:39;;;;;;;21.00;14.63;;;8.80;99.90;;;;;;5076527;28;20103;-69
2021/10/05 05:42:06;;;;;;;26.60;15.77;;;8.90;99.90;;;;;;5076233;28;20125;-68
2021/10/05 05:44:31;;;;;;;24.38;16.23;;;8.90;99.90;;;;;;5092054;28;20378;-68
2021/10/05 05:46:57;;;;;;;26.95;17.27;;;8.90;99.90;;;;;;5075264;28;20020;-68
2021/10/05 05:49:23;;;;;;;25.70;17.48;;;9.00;99.90;;;;;;5076316;28;20025;-68
2021/10/05 05:51:48;;;;;;;25.13;17.98;;;9.00;99.90;;;;;;5076308;28;20021;-68
2021/10/05 05:54:14;;;;;;;28.85;18.15;;;9.00;99.90;;;;;;5074668;28;20021;-68
2021/10/05 05:56:39;;;;;;;24.63;17.35;;;9.00;99.90;;;;;;5076131;28;20052;-69
2021/10/05 05:59:05;;;;;;;24.15;16.80;;;9.00;99.90;;;;;;5075787;28;20039;-69
2021/10/05 06:01:30;;;;;;;27.08;17.48;;;9.00;99.90;;;;;;5074622;28;20099;-68
2021/10/05 06:03:56;;;;;;;25.58;17.10;;;9.00;99.90;;;;;;5075713;28;20020;-69
2021/10/05 06:06:21;;;;;;;26.30;17.17;;;9.00;99.90;;;;;;5075183;28;20056;-68
2021/10/05 06:08:49;;;;;;;25.60;17.88;;;9.10;99.90;;;;;;5075419;28;20023;-68
2021/10/05 06:11:17;;;;;;;24.25;16.98;;;9.10;99.90;;;;;;5075915;28;20024;-69
2021/10/05 06:13:42;;;;;;;25.27;16.70;;;9.10;99.90;;;;;;5075604;28;20021;-69
2021/10/05 06:16:08;;;;;;;27.42;17.85;;;9.20;99.90;;;;;;5075479;28;20093;-70
2021/10/05 06:18:33;;;;;;;26.50;17.77;;;9.20;99.90;;;;;;5075515;28;20466;-69
2021/10/05 06:20:59;;;;;;;26.52;17.80;;;9.20;99.90;;;;;;5075723;28;20410;-69
2021/10/05 06:23:24;;;;;;;25.08;17.80;;;9.30;99.90;;;;;;5074528;28;20040;-69
2021/10/05 06:25:54;;;;;;;24.20;16.67;;;9.30;99.90;;;;;;5075544;28;20029;-68
2021/10/05 06:28:20;;;;;;;22.70;16.65;;;9.40;99.90;;;;;;5075616;28;20512;-69
2021/10/05 06:30:46;;;;;;;24.05;15.25;;;9.40;99.90;;;;;;5075486;28;20032;-69
2021/10/05 06:33:11;;;;;;;23.05;15.45;;;9.50;99.90;;;;;;5075157;28;20083;-69
2021/10/05 06:35:37;;;;;;;21.75;14.75;;;9.50;99.90;;;;;;5074168;28;20024;-69
2021/10/05 06:38:03;;;;;;;20.25;15.07;;;9.60;99.90;;;;;;5075112;28;20035;-69
2021/10/05 06:40:31;;;;;;;20.90;15.00;;;9.60;99.90;;;;;;5076026;28;20035;-69
2021/10/05 06:42:57;;;;;;;19.35;14.63;;;9.70;99.90;;;;;;5073727;28;20025;-69
2021/10/05 06:45:22;;;;;;;20.40;14.43;;;9.80;99.90;;;;;;5074927;28;20031;-68
2021/10/05 06:47:48;;;;;;;22.58;14.98;;;9.80;99.90;;;;;;5074682;28;20020;-69
2021/10/05 06:50:14;;;;;;;17.48;13.60;;;9.90;99.90;;;;;;5074921;28;20461;-69
2021/10/05 06:52:41;;;;;;;17.13;13.27;;;10.00;99.90;;;;;;5074807;28;20028;-69
2021/10/05 06:55:07;;;;;;;16.15;13.40;;;10.00;99.90;;;;;;5080019;28;20017;-69
2021/10/05 06:57:33;;;;;;;24.05;14.50;;;10.10;99.90;;;;;;5086048;28;20059;-69
2021/10/05 06:59:58;;;;;;;20.30;12.65;;;10.20;99.90;;;;;;5076918;28;20462;-69
2021/10/05 07:02:24;;;;;;;18.33;12.45;;;10.20;99.90;;;;;;5086918;28;20366;-69
2021/10/05 07:04:50;;;;;;;15.18;12.68;;;10.20;99.90;;;;;;5074187;28;20048;-69
2021/10/05 07:07:15;;;;;;;15.63;12.50;;;10.30;99.90;;;;;;5074637;28;20060;-68
2021/10/05 07:09:41;;;;;;;15.98;12.75;;;10.30;99.90;;;;;;5074145;28;20024;-70
2021/10/05 07:12:06;;;;;;;16.17;12.13;;;10.40;99.90;;;;;;5073791;28;20441;-70
2021/10/05 07:14:32;;;;;;;18.02;12.82;;;10.50;99.90;;;;;;5074635;28;20017;-69
2021/10/05 07:16:57;;;;;;;20.15;12.35;;;10.50;99.90;;;;;;5074511;28;20028;-69
2021/10/05 07:19:23;;;;;;;16.58;11.95;;;10.50;99.90;;;;;;5074541;28;20016;-69
2021/10/05 07:21:49;;;;;;;16.48;12.82;;;10.60;99.90;;;;;;5055967;28;20036;-68
2021/10/05 07:24:14;;;;;;;15.68;12.10;;;10.60;99.90;;;;;;5074383;28;20033;-69
2021/10/05 07:26:40;;;;;;;18.75;12.45;;;10.70;99.90;;;;;;5073833;28;20029;-69
2021/10/05 07:29:05;;;;;;;18.30;12.15;;;10.80;99.90;;;;;;5077692;28;20024;-68
2021/10/05 07:31:34;;;;;;;16.02;12.13;;;10.80;99.90;;;;;;5083493;28;20024;-69
2021/10/05 07:34:01;;;;;;;17.55;12.35;;;10.90;99.90;;;;;;5078402;28;20073;-68
2021/10/05 07:36:26;;;;;;;16.95;12.48;;;11.00;99.90;;;;;;5078760;28;20036;-69
2021/10/05 07:38:52;;;;;;;16.55;12.02;;;11.10;99.90;;;;;;5079030;28;20036;-68
2021/10/05 07:41:17;;;;;;;15.82;12.25;;;11.10;99.90;;;;;;5082506;28;20045;-70
2021/10/05 07:43:43;;;;;;;15.48;12.15;;;11.20;99.90;;;;;;5072751;28;20051;-69
2021/10/05 07:46:09;;;;;;;16.95;12.15;;;11.30;99.90;;;;;;5073968;28;20028;-70
2021/10/05 07:48:35;;;;;;;15.07;11.45;;;11.40;99.90;;;;;;5073702;28;20074;-69
2021/10/05 07:51:00;;;;;;;15.88;11.65;;;11.40;99.90;;;;;;5073736;28;20025;-69
2021/10/05 07:53:26;;;;;;;15.30;11.10;;;11.50;99.90;;;;;;5073997;28;20064;-70
2021/10/05 07:55:51;;;;;;;16.83;10.32;;;11.60;99.90;;;;;;5072247;28;20107;-69
2021/10/05 07:58:17;;;;;;;14.32;11.20;;;11.70;99.90;;;;;;5073717;28;20024;-69
2021/10/05 08:00:42;;;;;;;12.40;9.77;;;11.90;99.90;;;;;;5073678;28;20111;-70
2021/10/05 08:03:08;;;;;;;11.15;9.23;;;12.00;99.90;;;;;;5072812;28;20075;-71
2021/10/05 08:05:34;;;;;;;12.75;10.35;;;12.20;99.90;;;;;;5073276;28;20051;-69
2021/10/05 08:08:05;;;;;;;14.55;9.63;;;12.40;99.90;;;;;;5073895;28;20343;-69
2021/10/05 08:10:32;;;;;;;9.55;8.55;;;12.80;99.90;;;;;;5073538;28;20412;-71
2021/10/05 08:12:58;;;;;;;8.65;7.72;;;13.20;99.90;;;;;;5073812;28;20023;-70
2021/10/05 08:15:24;;;;;;;10.35;8.35;;;13.50;99.90;;;;;;5073347;28;20103;-71
2021/10/05 08:17:49;;;;;;;12.77;7.85;;;13.70;99.90;;;;;;5073830;28;20354;-70
2021/10/05 08:20:15;;;;;;;8.90;8.00;;;14.00;99.90;;;;;;5055751;28;20440;-70
2021/10/05 08:22:40;;;;;;;10.60;8.57;;;14.10;99.90;;;;;;5075777;28;20064;-70
2021/10/05 08:25:07;;;;;;;11.52;8.07;;;13.90;99.90;;;;;;5077572;28;20029;-68
2021/10/05 08:27:33;;;;;;;13.38;8.07;;;13.80;99.90;;;;;;5077833;28;20066;-69
2021/10/05 08:29:58;;;;;;;9.10;8.20;;;13.80;99.90;;;;;;5076245;28;20028;-69
2021/10/05 08:32:24;;;;;;;9.10;8.20;;;14.00;99.90;;;;;;5077769;28;20155;-69
2021/10/05 08:34:49;;;;;;;9.98;7.88;;;14.10;99.90;;;;;;5077649;28;20580;-69
2021/10/05 08:37:15;;;;;;;8.23;7.28;;;14.10;99.90;;;;;;5077369;28;20032;-69
2021/10/05 08:39:40;;;;;;;9.10;8.10;;;14.20;99.90;;;;;;5077571;28;20036;-70
2021/10/05 08:42:07;;;;;;;11.80;7.40;;;14.40;99.90;;;;;;5077424;28;20032;-69
2021/10/05 08:44:33;;;;;;;8.07;7.25;;;14.50;99.90;;;;;;5076840;28;20066;-69
2021/10/05 08:46:59;;;;;;;9.32;7.22;;;14.60;99.90;;;;;;5077171;28;20028;-69
2021/10/05 08:49:24;;;;;;;8.07;7.13;;;14.80;99.90;;;;;;5077230;28;20421;-69
2021/10/05 08:51:53;;;;;;;9.45;7.22;;;15.00;99.90;;;;;;5077300;28;20020;-69
2021/10/05 08:54:18;;;;;;;7.45;6.53;;;15.10;99.90;;;;;;5077316;28;20104;-69
2021/10/05 08:56:45;;;;;;;9.52;6.13;;;15.60;99.90;;;;;;5077258;28;20112;-70
2021/10/05 08:59:14;;;;;;;6.93;5.85;;;15.60;99.90;;;;;;5077271;28;20056;-69
2021/10/05 09:01:40;;;;;;;6.53;5.57;;;15.80;99.90;;;;;;5077159;28;20458;-69
2021/10/05 09:04:06;;;;;;;7.70;5.63;;;15.80;99.90;;;;;;5082395;28;20035;-69
2021/10/05 09:06:33;;;;;;;8.90;6.05;;;15.70;99.90;;;;;;5076273;28;20051;-69
2021/10/05 09:09:02;;;;;;;5.55;5.05;;;15.80;99.90;;;;;;5084929;28;20096;-68
2021/10/05 09:11:47;;;;;;;7.80;5.00;;;15.70;99.90;;;;;;5090414;28;20023;-68
2021/10/05 09:14:14;;;;;;;8.30;6.60;;;15.60;99.90;;;;;;5087037;28;20016;-68
2021/10/05 09:16:39;;;;;;;5.95;4.85;;;15.60;99.90;;;;;;5083572;28;20035;-69
2021/10/05 09:19:11;;;;;;;6.20;4.90;;;15.60;99.90;;;;;;5076480;28;20382;-70
2021/10/05 09:21:53;;;;;;;5.07;4.20;;;15.70;99.90;;;;;;5076167;28;20024;-68
2021/10/05 09:24:28;;;;;;;6.53;4.30;;;15.70;99.90;;;;;;5076718;28;20028;-69
2021/10/05 09:26:57;;;;;;;4.57;3.53;;;15.70;99.90;;;;;;5076118;28;20029;-69
2021/10/05 09:29:34;;;;;;;2.90;2.70;;;15.80;99.90;;;;;;5076702;28;20043;-69
2021/10/05 09:32:07;;;;;;;3.90;2.53;;;15.90;99.90;;;;;;5076674;28;20016;-69
2021/10/05 09:34:36;;;;;;;2.40;2.20;;;15.90;99.90;;;;;;5075506;28;20016;-70
2021/10/05 09:37:29;;;;;;;2.70;2.50;;;16.20;99.90;;;;;;5075646;28;20120;-70
2021/10/05 09:40:12;;;;;;;2.45;2.20;;;16.50;99.90;;;;;;5075927;28;20039;-70
2021/10/05 09:42:40;;;;;;;2.22;2.03;;;16.60;99.90;;;;;;5076505;28;20512;-68
2021/10/05 09:45:09;;;;;;;2.25;2.05;;;16.40;99.90;;;;;;5076128;28;20032;-68
2021/10/05 09:47:45;;;;;;;3.78;1.83;;;16.50;99.90;;;;;;5074583;28;20024;-69
2021/10/05 09:50:26;;;;;;;1.77;1.67;;;16.80;99.90;;;;;;5076019;28;20029;-68
2021/10/05 09:53:01;;;;;;;4.60;1.70;;;17.30;99.90;;;;;;5076240;28;20016;-69
2021/10/05 09:55:29;;;;;;;2.90;1.92;;;17.60;99.90;;;;;;5076207;28;20051;-69
2021/10/05 09:57:56;;;;;;;2.15;1.70;;;17.60;99.90;;;;;;5076000;28;20065;-69
2021/10/05 10:00:24;;;;;;;2.70;1.70;;;17.80;99.90;;;;;;5074315;28;20028;-70
2021/10/05 10:02:51;;;;;;;1.80;1.70;;;17.50;99.90;;;;;;5075339;28;20020;-69
2021/10/05 10:05:19;;;;;;;3.50;1.83;;;17.40;99.90;;;;;;5057375;28;20131;-69
2021/10/05 10:07:48;;;;;;;1.85;1.75;;;17.40;99.90;;;;;;5075122;28;20442;-69
2021/10/05 10:10:16;;;;;;;1.92;1.65;;;17.80;99.90;;;;;;5076156;28;20052;-69
2021/10/05 10:12:53;;;;;;;2.90;2.10;;;17.70;99.90;;;;;;5087421;28;20024;-69
2021/10/05 10:15:26;;;;;;;1.80;1.70;;;17.50;99.90;;;;;;5085869;28;20474;-68
2021/10/05 10:17:51;;;;;;;3.05;1.83;;;17.50;99.90;;;;;;5079240;28;20031;-69
2021/10/05 10:20:26;;;;;;;2.95;1.92;;;17.70;99.90;;;;;;5079506;28;20017;-69
2021/10/05 10:22:53;;;;;;;1.58;1.25;;;17.90;99.90;;;;;;5083834;28;20021;-67
2021/10/05 10:25:23;;;;;;;2.15;1.52;;;17.90;99.90;;;;;;5057480;28;20020;-68
2021/10/05 10:27:50;;;;;;;2.25;1.95;;;17.80;99.90;;;;;;5075042;28;20031;-69
2021/10/05 10:30:16;;;;;;;3.83;1.67;;;18.00;99.90;;;;;;5075209;28;20049;-69
2021/10/05 10:32:45;;;;;;;2.65;1.75;;;18.00;99.90;;;;;;5078487;28;20795;-70
2021/10/05 10:35:11;;;;;;;1.80;1.50;;;18.80;99.90;;;;;;5086676;28;20020;-71
2021/10/05 10:37:47;;;;;;;1.70;1.50;;;19.40;99.90;;;;;;5075088;28;20477;-69
2021/10/05 10:40:13;;;;;;;1.60;1.10;;;19.20;99.90;;;;;;5074837;28;20016;-70
2021/10/05 10:42:39;;;;;;;1.67;1.20;;;19.10;99.90;;;;;;5079301;28;20028;-70
2021/10/05 10:45:16;;;;;;;2.80;1.02;;;19.70;99.90;;;;;;5073499;28;20028;-69
2021/10/05 10:47:44;;;;;;;1.23;0.82;;;19.50;99.90;;;;;;5074418;28;20146;-69
2021/10/05 10:50:12;;;;;;;1.35;1.00;;;19.30;99.90;;;;;;5074750;28;20054;-69
2021/10/05 10:52:43;;;;;;;4.55;1.00;;;19.40;99.90;;;;;;5074951;28;20024;-69
2021/10/05 10:55:11;;;;;;;2.72;1.13;;;19.40;99.90;;;;;;5074748;28;20111;-69
2021/10/05 10:57:40;;;;;;;4.15;1.45;;;19.60;99.90;;;;;;5074096;28;20028;-69
2021/10/05 11:00:25;;;;;;;2.45;0.95;;;20.30;99.90;;;;;;5074369;28;20035;-70
2021/10/05 11:03:00;;;;;;;1.63;0.80;;;20.50;99.90;;;;;;5073915;28;20316;-69
2021/10/05 11:05:30;;;;;;;0.82;0.73;;;20.00;99.90;;;;;;5074193;28;20131;-69
2021/10/05 11:07:57;;;;;;;2.92;1.17;;;19.80;99.90;;;;;;5072910;28;20027;-68
2021/10/05 11:10:29;;;;;;;4.00;1.10;;;19.30;99.90;;;;;;5074399;28;20012;-70
2021/10/05 11:12:58;;;;;;;2.10;1.08;;;19.20;99.90;;;;;;5076268;28;20023;-69
2021/10/05 11:15:46;;;;;;;1.48;1.00;;;19.10;99.90;;;;;;5080572;28;20082;-68
2021/10/05 11:18:16;;;;;;;1.80;0.90;;;18.90;99.90;;;;;;5074565;28;20012;-68
2021/10/05 11:23:25;;;;;;;1.63;1.13;;;18.90;99.90;;;;;;5070707;28;20441;-69
2021/10/05 11:25:54;;;;;;;2.10;1.08;;;18.80;99.90;;;;;;5071084;28;20032;-70
2021/10/05 11:28:23;;;;;;;1.52;0.93;;;18.70;99.90;;;;;;5071149;28;20017;-70
2021/10/05 11:30:53;;;;;;;1.08;0.90;;;18.70;99.90;;;;;;5070814;28;20412;-70
2021/10/05 11:33:20;;;;;;;2.85;1.17;;;18.90;99.90;;;;;;5060337;28;20049;-69
2021/10/05 11:35:46;;;;;;;2.00;1.00;;;19.00;99.90;;;;;;5057029;28;20013;-69
2021/10/05 11:38:13;;;;;;;3.20;1.40;;;19.00;99.90;;;;;;5066223;28;20444;-69
2021/10/05 11:40:49;;;;;;;1.50;1.15;;;19.10;99.90;;;;;;5068367;28;20032;-70
2021/10/05 11:43:15;;;;;;;1.23;0.98;;;19.20;99.90;;;;;;5067496;28;20033;-69
2021/10/05 11:45:40;;;;;;;2.78;1.08;;;19.40;99.90;;;;;;5055432;28;20367;-69
2021/10/05 11:48:06;;;;;;;2.08;1.10;;;19.00;99.90;;;;;;5055391;28;20024;-69
2021/10/05 11:50:31;;;;;;;4.05;1.45;;;18.80;99.90;;;;;;5070522;28;20490;-69
2021/10/05 11:52:57;;;;;;;1.45;1.10;;;19.00;99.90;;;;;;5070656;28;20028;-69
2021/10/05 11:55:23;;;;;;;1.55;1.20;;;19.00;99.90;;;;;;5070167;28;20489;-69
2021/10/05 11:57:54;;;;;;;2.60;1.23;;;19.00;99.90;;;;;;5070351;28;20106;-70
2021/10/05 12:00:20;;;;;;;1.88;1.45;;;19.10;99.90;;;;;;5065168;28;20017;-71
2021/10/05 12:02:46;;;;;;;3.95;1.48;;;19.10;99.90;;;;;;5070154;28;20158;-68
2021/10/05 12:05:26;;;;;;;1.63;1.00;;;19.10;99.90;;;;;;5065610;28;20398;-70
2021/10/05 12:07:52;;;;;;;1.10;1.00;;;18.90;99.90;;;;;;5068814;28;20029;-69
2021/10/05 12:10:19;;;;;;;2.20;0.93;;;19.40;99.90;;;;;;5068939;28;20027;-68
2021/10/05 12:12:45;;;;;;;2.67;1.30;;;19.90;99.90;;;;;;5070325;28;20458;-68
2021/10/05 12:15:15;;;;;;;1.55;1.30;;;19.80;99.90;;;;;;5070288;28;20522;-68
2021/10/05 12:17:42;;;;;;;2.00;1.08;;;19.80;99.90;;;;;;5068802;28;20044;-68
2021/10/05 12:20:12;;;;;;;3.92;1.30;;;19.50;99.90;;;;;;5069915;28;20032;-68
2021/10/05 12:22:42;;;;;;;2.30;1.38;;;19.50;99.90;;;;;;5069368;28;20036;-69
2021/10/05 12:25:24;;;;;;;2.95;1.30;;;19.40;99.90;;;;;;5070013;28;20028;-68
2021/10/05 12:27:53;;;;;;;2.05;1.10;;;19.50;99.90;;;;;;5069987;28;20025;-68
2021/10/05 12:30:27;;;;;;;1.45;1.08;;;19.50;99.90;;;;;;5068044;28;20028;-68
2021/10/05 12:32:55;;;;;;;1.35;1.23;;;19.20;99.90;;;;;;5054496;28;20064;-68
2021/10/05 12:35:38;;;;;;;1.35;1.00;;;19.20;99.90;;;;;;5068455;28;20025;-68
2021/10/05 12:38:08;;;;;;;1.75;1.08;;;19.00;99.90;;;;;;5054898;28;20032;-68
2021/10/05 12:40:56;;;;;;;2.53;1.08;;;18.90;99.90;;;;;;5051069;28;20063;-68
2021/10/05 12:43:37;;;;;;;4.10;1.17;;;18.70;99.90;;;;;;5041438;28;20113;-68
2021/10/05 12:46:06;;;;;;;3.75;1.05;;;18.80;99.90;;;;;;5055175;28;20027;-69